sensor_id;sensor_type;location;lat;lon;timestamp;temperature;humidity
6690;DHT22;3382;51.576;8.076;2023-04-16T00:01:08;10.40;99.90
6690;DHT22;3382;51.576;8.076;2023-04-16T00:03:34;10.40;99.90
6690;DHT22;3382;51.576;8.076;2023-04-16T00:05:59;10.40;99.90
6690;DHT22;3382;51.576;8.076;2023-04-16T00:08:25;10.40;99.90
6690;DHT22;3382;51.576;8.076;2023-04-16T00:10:52;10.40;99.90
6690;DHT22;3382;51.576;8.076;2023-04-16T00:13:18;10.40;99.90
6690;DHT22;3382;51.576;8.076;2023-04-16T00:15:44;10.40;99.90
6690;DHT22;3382;51.576;8.076;2023-04-16T00:18:09;10.40;99.90
6690;DHT22;3382;51.576;8.076;2023-04-16T00:20:35;10.40;99.90
6690;DHT22;3382;51.576;8.076;2023-04-16T00:23:00;10.40;99.90
6690;DHT22;3382;51.576;8.076;2023-04-16T00:25:26;10.40;99.90
6690;DHT22;3382;51.576;8.076;2023-04-16T00:27:52;10.40;99.90
6690;DHT22;3382;51.576;8.076;2023-04-16T00:30:17;10.40;99.90
6690;DHT22;3382;51.576;8.076;2023-04-16T00:32:43;10.40;99.90
6690;DHT22;3382;51.576;8.076;2023-04-16T00:35:08;10.40;99.90
6690;DHT22;3382;51.576;8.076;2023-04-16T00:37:34;10.40;99.90
6690;DHT22;3382;51.576;8.076;2023-04-16T00:40:00;10.40;99.90
6690;DHT22;3382;51.576;8.076;2023-04-16T00:42:25;10.40;99.90
6690;DHT22;3382;51.576;8.076;2023-04-16T00:44:51;10.50;99.90
6690;DHT22;3382;51.576;8.076;2023-04-16T00:47:18;10.40;99.90
6690;DHT22;3382;51.576;8.076;2023-04-16T00:49:44;10.40;99.90
6690;DHT22;3382;51.576;8.076;2023-04-16T00:52:10;10.40;99.90
6690;DHT22;3382;51.576;8.076;2023-04-16T00:54:36;10.40;99.90
6690;DHT22;3382;51.576;8.076;2023-04-16T00:57:02;10.40;99.90
6690;DHT22;3382;51.576;8.076;2023-04-16T00:59:28;10.30;99.90
6690;DHT22;3382;51.576;8.076;2023-04-16T01:01:53;10.40;99.90
6690;DHT22;3382;51.576;8.076;2023-04-16T01:04:19;10.40;99.90
6690;DHT22;3382;51.576;8.076;2023-04-16T01:06:45;10.40;99.90
6690;DHT22;3382;51.576;8.076;2023-04-16T01:09:11;10.40;99.90
6690;DHT22;3382;51.576;8.076;2023-04-16T01:11:37;10.40;99.90
6690;DHT22;3382;51.576;8.076;2023-04-16T01:14:03;10.40;99.90
6690;DHT22;3382;51.576;8.076;2023-04-16T01:16:28;10.40;99.90
6690;DHT22;3382;51.576;8.076;2023-04-16T01:18:54;10.40;99.90
6690;DHT22;3382;51.576;8.076;2023-04-16T01:21:19;10.40;99.90
6690;DHT22;3382;51.576;8.076;2023-04-16T01:23:45;10.40;99.90
6690;DHT22;3382;51.576;8.076;2023-04-16T01:26:11;10.40;99.90
6690;DHT22;3382;51.576;8.076;2023-04-16T01:28:36;10.30;99.90
6690;DHT22;3382;51.576;8.076;2023-04-16T01:31:02;10.40;99.90
6690;DHT22;3382;51.576;8.076;2023-04-16T01:33:27;10.40;99.90
6690;DHT22;3382;51.576;8.076;2023-04-16T01:35:53;10.40;99.90
6690;DHT22;3382;51.576;8.076;2023-04-16T01:38:19;10.30;99.90
6690;DHT22;3382;51.576;8.076;2023-04-16T01:40:44;10.40;99.90
6690;DHT22;3382;51.576;8.076;2023-04-16T01:43:10;10.40;99.90
6690;DHT22;3382;51.576;8.076;2023-04-16T01:45:35;10.40;99.90
6690;DHT22;3382;51.576;8.076;2023-04-16T01:48:02;10.40;99.90
6690;DHT22;3382;51.576;8.076;2023-04-16T01:50:29;10.40;99.90
6690;DHT22;3382;51.576;8.076;2023-04-16T01:52:55;10.40;99.90
6690;DHT22;3382;51.576;8.076;2023-04-16T01:55:21;10.40;99.90
6690;DHT22;3382;51.576;8.076;2023-04-16T01:57:46;10.40;99.90
6690;DHT22;3382;51.576;8.076;2023-04-16T02:00:12;10.40;99.90
6690;DHT22;3382;51.576;8.076;2023-04-16T02:02:38;10.40;99.90
6690;DHT22;3382;51.576;8.076;2023-04-16T02:05:04;10.30;99.90
6690;DHT22;3382;51.576;8.076;2023-04-16T02:07:30;10.30;99.90
6690;DHT22;3382;51.576;8.076;2023-04-16T02:09:56;10.30;99.90
6690;DHT22;3382;51.576;8.076;2023-04-16T02:12:22;10.30;99.90
6690;DHT22;3382;51.576;8.076;2023-04-16T02:14:48;10.30;99.90
6690;DHT22;3382;51.576;8.076;2023-04-16T02:17:13;10.30;99.90
6690;DHT22;3382;51.576;8.076;2023-04-16T02:19:40;10.30;99.90
6690;DHT22;3382;51.576;8.076;2023-04-16T02:22:05;10.30;99.90
6690;DHT22;3382;51.576;8.076;2023-04-16T02:24:31;10.30;99.90
6690;DHT22;3382;51.576;8.076;2023-04-16T02:26:57;10.30;99.90
6690;DHT22;3382;51.576;8.076;2023-04-16T02:29:23;10.30;99.90
6690;DHT22;3382;51.576;8.076;2023-04-16T02:31:48;10.40;99.90
6690;DHT22;3382;51.576;8.076;2023-04-16T02:34:14;10.40;99.90
6690;DHT22;3382;51.576;8.076;2023-04-16T02:36:40;10.40;99.90
6690;DHT22;3382;51.576;8.076;2023-04-16T02:39:05;10.40;99.90
6690;DHT22;3382;51.576;8.076;2023-04-16T02:41:31;10.40;99.90
6690;DHT22;3382;51.576;8.076;2023-04-16T02:43:56;10.40;99.90
6690;DHT22;3382;51.576;8.076;2023-04-16T02:46:22;10.40;99.90
6690;DHT22;3382;51.576;8.076;2023-04-16T02:48:48;10.40;99.90
6690;DHT22;3382;51.576;8.076;2023-04-16T02:51:13;10.40;99.90
6690;DHT22;3382;51.576;8.076;2023-04-16T02:53:39;10.40;99.90
6690;DHT22;3382;51.576;8.076;2023-04-16T02:56:05;10.40;99.90
6690;DHT22;3382;51.576;8.076;2023-04-16T02:58:31;10.40;99.90
6690;DHT22;3382;51.576;8.076;2023-04-16T03:00:56;10.40;99.90
6690;DHT22;3382;51.576;8.076;2023-04-16T03:03:22;10.50;99.90
6690;DHT22;3382;51.576;8.076;2023-04-16T03:05:48;10.50;99.90
6690;DHT22;3382;51.576;8.076;2023-04-16T03:08:14;10.50;99.90
6690;DHT22;3382;51.576;8.076;2023-04-16T03:10:39;10.50;99.90
6690;DHT22;3382;51.576;8.076;2023-04-16T03:13:06;10.50;99.90
6690;DHT22;3382;51.576;8.076;2023-04-16T03:15:32;10.50;99.90
6690;DHT22;3382;51.576;8.076;2023-04-16T03:17:58;10.50;99.90
6690;DHT22;3382;51.576;8.076;2023-04-16T03:20:24;10.50;99.90
6690;DHT22;3382;51.576;8.076;2023-04-16T03:22:50;10.50;99.90
6690;DHT22;3382;51.576;8.076;2023-04-16T03:25:19;10.40;99.90
6690;DHT22;3382;51.576;8.076;2023-04-16T03:27:45;10.40;99.90
6690;DHT22;3382;51.576;8.076;2023-04-16T03:30:11;10.40;99.90
6690;DHT22;3382;51.576;8.076;2023-04-16T03:32:38;10.40;99.90
6690;DHT22;3382;51.576;8.076;2023-04-16T03:35:07;10.40;99.90
6690;DHT22;3382;51.576;8.076;2023-04-16T03:37:33;10.30;99.90
6690;DHT22;3382;51.576;8.076;2023-04-16T03:39:59;10.40;99.90
6690;DHT22;3382;51.576;8.076;2023-04-16T03:42:24;10.40;99.90
6690;DHT22;3382;51.576;8.076;2023-04-16T03:44:50;10.40;99.90
6690;DHT22;3382;51.576;8.076;2023-04-16T03:47:18;10.30;99.90
6690;DHT22;3382;51.576;8.076;2023-04-16T03:49:43;10.40;99.90
6690;DHT22;3382;51.576;8.076;2023-04-16T03:52:09;10.40;99.90
6690;DHT22;3382;51.576;8.076;2023-04-16T03:54:35;10.40;99.90
6690;DHT22;3382;51.576;8.076;2023-04-16T03:57:01;10.40;99.90
6690;DHT22;3382;51.576;8.076;2023-04-16T03:59:27;10.40;99.90
6690;DHT22;3382;51.576;8.076;2023-04-16T04:01:52;10.40;99.90
6690;DHT22;3382;51.576;8.076;2023-04-16T04:04:18;10.40;99.90
6690;DHT22;3382;51.576;8.076;2023-04-16T04:06:47;10.40;99.90
6690;DHT22;3382;51.576;8.076;2023-04-16T04:09:13;10.40;99.90
6690;DHT22;3382;51.576;8.076;2023-04-16T04:11:39;10.40;99.90
6690;DHT22;3382;51.576;8.076;2023-04-16T04:14:05;10.40;99.90
6690;DHT22;3382;51.576;8.076;2023-04-16T04:16:31;10.40;99.90
6690;DHT22;3382;51.576;8.076;2023-04-16T04:18:56;10.40;99.90
6690;DHT22;3382;51.576;8.076;2023-04-16T04:21:22;10.40;99.90
6690;DHT22;3382;51.576;8.076;2023-04-16T04:23:48;10.40;99.90
6690;DHT22;3382;51.576;8.076;2023-04-16T04:26:13;10.40;99.90
6690;DHT22;3382;51.576;8.076;2023-04-16T04:28:39;10.40;99.90
6690;DHT22;3382;51.576;8.076;2023-04-16T04:31:05;10.40;99.90
6690;DHT22;3382;51.576;8.076;2023-04-16T04:33:30;10.30;99.90
6690;DHT22;3382;51.576;8.076;2023-04-16T04:35:56;10.40;99.90
6690;DHT22;3382;51.576;8.076;2023-04-16T04:38:21;10.40;99.90
6690;DHT22;3382;51.576;8.076;2023-04-16T04:40:52;10.40;99.90
6690;DHT22;3382;51.576;8.076;2023-04-16T04:43:21;10.40;99.90
6690;DHT22;3382;51.576;8.076;2023-04-16T04:45:47;10.40;99.90
6690;DHT22;3382;51.576;8.076;2023-04-16T04:48:13;10.40;99.90
6690;DHT22;3382;51.576;8.076;2023-04-16T04:50:40;10.40;99.90
6690;DHT22;3382;51.576;8.076;2023-04-16T04:53:06;10.40;99.90
6690;DHT22;3382;51.576;8.076;2023-04-16T04:55:38;10.40;99.90
6690;DHT22;3382;51.576;8.076;2023-04-16T04:58:07;10.40;99.90
6690;DHT22;3382;51.576;8.076;2023-04-16T05:00:33;10.40;99.90
6690;DHT22;3382;51.576;8.076;2023-04-16T05:03:04;10.40;99.90
6690;DHT22;3382;51.576;8.076;2023-04-16T05:05:30;10.40;99.90
6690;DHT22;3382;51.576;8.076;2023-04-16T05:07:55;10.40;99.90
6690;DHT22;3382;51.576;8.076;2023-04-16T05:10:21;10.40;99.90
6690;DHT22;3382;51.576;8.076;2023-04-16T05:12:47;10.40;99.90
6690;DHT22;3382;51.576;8.076;2023-04-16T05:15:13;10.40;99.90
6690;DHT22;3382;51.576;8.076;2023-04-16T05:17:38;10.50;99.90
6690;DHT22;3382;51.576;8.076;2023-04-16T05:20:04;10.40;99.90
6690;DHT22;3382;51.576;8.076;2023-04-16T05:22:30;10.40;99.90
6690;DHT22;3382;51.576;8.076;2023-04-16T05:24:56;10.40;99.90
6690;DHT22;3382;51.576;8.076;2023-04-16T05:27:21;10.40;99.90
6690;DHT22;3382;51.576;8.076;2023-04-16T05:29:47;10.40;99.90
6690;DHT22;3382;51.576;8.076;2023-04-16T05:32:12;10.40;99.90
6690;DHT22;3382;51.576;8.076;2023-04-16T05:34:38;10.40;99.90
6690;DHT22;3382;51.576;8.076;2023-04-16T05:37:04;10.40;99.90
6690;DHT22;3382;51.576;8.076;2023-04-16T05:39:29;10.50;99.90
6690;DHT22;3382;51.576;8.076;2023-04-16T05:41:55;10.60;99.90
6690;DHT22;3382;51.576;8.076;2023-04-16T05:44:20;10.80;99.90
6690;DHT22;3382;51.576;8.076;2023-04-16T05:46:46;10.60;99.90
6690;DHT22;3382;51.576;8.076;2023-04-16T05:49:12;10.70;99.90
6690;DHT22;3382;51.576;8.076;2023-04-16T05:51:37;10.50;99.90
6690;DHT22;3382;51.576;8.076;2023-04-16T05:54:03;10.50;99.90
6690;DHT22;3382;51.576;8.076;2023-04-16T05:56:28;10.40;99.90
6690;DHT22;3382;51.576;8.076;2023-04-16T05:58:54;10.50;99.90
6690;DHT22;3382;51.576;8.076;2023-04-16T06:01:21;10.40;99.90
6690;DHT22;3382;51.576;8.076;2023-04-16T06:03:47;10.40;99.90
6690;DHT22;3382;51.576;8.076;2023-04-16T06:06:13;10.50;99.90
6690;DHT22;3382;51.576;8.076;2023-04-16T06:08:38;10.40;99.90
6690;DHT22;3382;51.576;8.076;2023-04-16T06:11:04;10.40;99.90
6690;DHT22;3382;51.576;8.076;2023-04-16T06:13:30;10.40;99.90
6690;DHT22;3382;51.576;8.076;2023-04-16T06:15:55;10.50;99.90
6690;DHT22;3382;51.576;8.076;2023-04-16T06:18:21;10.50;99.90
6690;DHT22;3382;51.576;8.076;2023-04-16T06:20:46;10.60;99.90
6690;DHT22;3382;51.576;8.076;2023-04-16T06:23:12;10.90;99.90
6690;DHT22;3382;51.576;8.076;2023-04-16T06:25:38;11.60;99.90
6690;DHT22;3382;51.576;8.076;2023-04-16T06:28:03;12.30;99.90
6690;DHT22;3382;51.576;8.076;2023-04-16T06:30:29;12.50;99.90
6690;DHT22;3382;51.576;8.076;2023-04-16T06:32:55;12.70;99.90
6690;DHT22;3382;51.576;8.076;2023-04-16T06:35:20;12.70;99.90
6690;DHT22;3382;51.576;8.076;2023-04-16T06:37:46;12.40;99.90
6690;DHT22;3382;51.576;8.076;2023-04-16T06:40:12;12.00;99.90
6690;DHT22;3382;51.576;8.076;2023-04-16T06:42:37;11.80;99.90
6690;DHT22;3382;51.576;8.076;2023-04-16T06:45:03;11.60;99.90
6690;DHT22;3382;51.576;8.076;2023-04-16T06:47:29;11.50;99.90
6690;DHT22;3382;51.576;8.076;2023-04-16T06:49:54;11.40;99.90
6690;DHT22;3382;51.576;8.076;2023-04-16T06:52:20;11.30;99.90
6690;DHT22;3382;51.576;8.076;2023-04-16T06:54:47;11.30;99.90
6690;DHT22;3382;51.576;8.076;2023-04-16T06:57:12;11.20;99.90
6690;DHT22;3382;51.576;8.076;2023-04-16T06:59:38;11.10;99.90
6690;DHT22;3382;51.576;8.076;2023-04-16T07:02:04;11.00;99.90
6690;DHT22;3382;51.576;8.076;2023-04-16T07:04:29;11.00;99.90
6690;DHT22;3382;51.576;8.076;2023-04-16T07:06:55;11.00;99.90
6690;DHT22;3382;51.576;8.076;2023-04-16T07:09:20;11.00;99.90
6690;DHT22;3382;51.576;8.076;2023-04-16T07:11:46;11.00;99.90
6690;DHT22;3382;51.576;8.076;2023-04-16T07:14:11;10.90;99.90
6690;DHT22;3382;51.576;8.076;2023-04-16T07:16:37;10.90;99.90
6690;DHT22;3382;51.576;8.076;2023-04-16T07:19:03;10.90;99.90
6690;DHT22;3382;51.576;8.076;2023-04-16T07:21:28;10.90;99.90
6690;DHT22;3382;51.576;8.076;2023-04-16T07:23:54;10.90;99.90
6690;DHT22;3382;51.576;8.076;2023-04-16T07:26:20;10.90;99.90
6690;DHT22;3382;51.576;8.076;2023-04-16T07:28:45;10.90;99.90
6690;DHT22;3382;51.576;8.076;2023-04-16T07:31:11;10.90;99.90
6690;DHT22;3382;51.576;8.076;2023-04-16T07:33:37;11.00;99.90
6690;DHT22;3382;51.576;8.076;2023-04-16T07:36:02;11.00;99.90
6690;DHT22;3382;51.576;8.076;2023-04-16T07:38:28;11.00;99.90
6690;DHT22;3382;51.576;8.076;2023-04-16T07:40:54;11.10;99.90
6690;DHT22;3382;51.576;8.076;2023-04-16T07:43:20;11.00;99.90
6690;DHT22;3382;51.576;8.076;2023-04-16T07:45:46;10.90;99.90
6690;DHT22;3382;51.576;8.076;2023-04-16T07:48:12;11.00;99.90
6690;DHT22;3382;51.576;8.076;2023-04-16T07:50:37;11.00;99.90
6690;DHT22;3382;51.576;8.076;2023-04-16T07:53:03;11.00;99.90
6690;DHT22;3382;51.576;8.076;2023-04-16T07:55:30;11.00;99.90
6690;DHT22;3382;51.576;8.076;2023-04-16T07:57:55;10.90;99.90
6690;DHT22;3382;51.576;8.076;2023-04-16T08:00:21;11.10;99.90
6690;DHT22;3382;51.576;8.076;2023-04-16T08:02:47;11.00;99.90
6690;DHT22;3382;51.576;8.076;2023-04-16T08:05:13;11.20;99.90
6690;DHT22;3382;51.576;8.076;2023-04-16T08:07:38;11.20;99.90
6690;DHT22;3382;51.576;8.076;2023-04-16T08:10:04;11.20;99.90
6690;DHT22;3382;51.576;8.076;2023-04-16T08:12:30;11.20;99.90
6690;DHT22;3382;51.576;8.076;2023-04-16T08:14:55;11.20;99.90
6690;DHT22;3382;51.576;8.076;2023-04-16T08:17:21;11.10;99.90
6690;DHT22;3382;51.576;8.076;2023-04-16T08:19:46;11.10;99.90
6690;DHT22;3382;51.576;8.076;2023-04-16T08:22:13;11.00;99.90
6690;DHT22;3382;51.576;8.076;2023-04-16T08:24:38;11.00;99.90
6690;DHT22;3382;51.576;8.076;2023-04-16T08:27:04;11.00;99.90
6690;DHT22;3382;51.576;8.076;2023-04-16T08:29:30;11.00;99.90
6690;DHT22;3382;51.576;8.076;2023-04-16T08:31:56;11.00;99.90
6690;DHT22;3382;51.576;8.076;2023-04-16T08:34:21;11.00;99.90
6690;DHT22;3382;51.576;8.076;2023-04-16T08:36:47;11.00;99.90
6690;DHT22;3382;51.576;8.076;2023-04-16T08:39:13;11.00;99.90
6690;DHT22;3382;51.576;8.076;2023-04-16T08:41:41;11.00;99.90
6690;DHT22;3382;51.576;8.076;2023-04-16T08:44:08;11.10;99.90
6690;DHT22;3382;51.576;8.076;2023-04-16T08:46:36;11.10;99.90
6690;DHT22;3382;51.576;8.076;2023-04-16T08:49:05;11.20;99.90
6690;DHT22;3382;51.576;8.076;2023-04-16T08:51:34;11.20;99.90
6690;DHT22;3382;51.576;8.076;2023-04-16T08:54:11;11.10;99.90
6690;DHT22;3382;51.576;8.076;2023-04-16T08:56:39;11.10;99.90
6690;DHT22;3382;51.576;8.076;2023-04-16T08:59:06;11.10;99.90
6690;DHT22;3382;51.576;8.076;2023-04-16T09:01:32;11.20;99.90
6690;DHT22;3382;51.576;8.076;2023-04-16T09:03:59;11.20;99.90
6690;DHT22;3382;51.576;8.076;2023-04-16T09:06:28;11.20;99.90
6690;DHT22;3382;51.576;8.076;2023-04-16T09:08:56;11.30;99.90
6690;DHT22;3382;51.576;8.076;2023-04-16T09:11:23;11.40;99.90
6690;DHT22;3382;51.576;8.076;2023-04-16T09:13:49;11.50;99.90
6690;DHT22;3382;51.576;8.076;2023-04-16T09:16:16;11.60;99.90
6690;DHT22;3382;51.576;8.076;2023-04-16T09:18:42;11.60;99.90
6690;DHT22;3382;51.576;8.076;2023-04-16T09:21:09;11.70;99.90
6690;DHT22;3382;51.576;8.076;2023-04-16T09:23:36;11.80;99.90
6690;DHT22;3382;51.576;8.076;2023-04-16T09:26:04;11.70;99.90
6690;DHT22;3382;51.576;8.076;2023-04-16T09:31:15;11.80;99.90
6690;DHT22;3382;51.576;8.076;2023-04-16T09:33:42;11.80;99.90
6690;DHT22;3382;51.576;8.076;2023-04-16T09:36:09;11.90;99.90
6690;DHT22;3382;51.576;8.076;2023-04-16T09:38:48;11.90;99.90
6690;DHT22;3382;51.576;8.076;2023-04-16T09:41:15;11.80;99.90
6690;DHT22;3382;51.576;8.076;2023-04-16T09:43:48;11.80;99.90
6690;DHT22;3382;51.576;8.076;2023-04-16T09:46:13;11.80;99.90
6690;DHT22;3382;51.576;8.076;2023-04-16T09:48:39;11.80;99.90
6690;DHT22;3382;51.576;8.076;2023-04-16T09:51:05;11.80;99.90
6690;DHT22;3382;51.576;8.076;2023-04-16T09:53:31;11.80;99.90
6690;DHT22;3382;51.576;8.076;2023-04-16T09:58:23;11.90;99.90
6690;DHT22;3382;51.576;8.076;2023-04-16T10:00:54;11.90;99.90
6690;DHT22;3382;51.576;8.076;2023-04-16T10:03:31;12.00;99.90
6690;DHT22;3382;51.576;8.076;2023-04-16T10:06:16;12.00;99.90
6690;DHT22;3382;51.576;8.076;2023-04-16T10:08:47;12.00;99.90
6690;DHT22;3382;51.576;8.076;2023-04-16T10:11:13;12.20;99.90
6690;DHT22;3382;51.576;8.076;2023-04-16T10:13:39;12.20;99.90
6690;DHT22;3382;51.576;8.076;2023-04-16T10:16:06;12.20;99.90
6690;DHT22;3382;51.576;8.076;2023-04-16T10:18:38;12.30;99.90
6690;DHT22;3382;51.576;8.076;2023-04-16T10:21:04;12.30;99.90
6690;DHT22;3382;51.576;8.076;2023-04-16T10:23:31;12.30;99.90
6690;DHT22;3382;51.576;8.076;2023-04-16T10:25:58;12.40;99.90
6690;DHT22;3382;51.576;8.076;2023-04-16T10:28:24;12.40;99.90
6690;DHT22;3382;51.576;8.076;2023-04-16T10:30:51;12.60;99.90
6690;DHT22;3382;51.576;8.076;2023-04-16T10:33:38;12.70;99.90
6690;DHT22;3382;51.576;8.076;2023-04-16T10:36:13;12.60;99.90
6690;DHT22;3382;51.576;8.076;2023-04-16T10:38:44;12.60;99.90
6690;DHT22;3382;51.576;8.076;2023-04-16T10:41:10;12.60;99.90
6690;DHT22;3382;51.576;8.076;2023-04-16T10:43:46;12.70;99.90
6690;DHT22;3382;51.576;8.076;2023-04-16T10:46:32;12.70;99.90
6690;DHT22;3382;51.576;8.076;2023-04-16T10:49:10;12.80;99.90
6690;DHT22;3382;51.576;8.076;2023-04-16T10:51:36;12.90;99.90
6690;DHT22;3382;51.576;8.076;2023-04-16T10:56:44;13.00;99.90
6690;DHT22;3382;51.576;8.076;2023-04-16T10:59:10;13.00;99.90
6690;DHT22;3382;51.576;8.076;2023-04-16T11:01:43;13.20;99.90
6690;DHT22;3382;51.576;8.076;2023-04-16T11:09:59;13.10;99.90
6690;DHT22;3382;51.576;8.076;2023-04-16T11:15:09;13.10;99.90
6690;DHT22;3382;51.576;8.076;2023-04-16T11:17:44;13.10;99.90
6690;DHT22;3382;51.576;8.076;2023-04-16T11:20:23;13.10;99.90
6690;DHT22;3382;51.576;8.076;2023-04-16T11:22:51;13.10;99.90
6690;DHT22;3382;51.576;8.076;2023-04-16T11:27:50;13.00;99.90
6690;DHT22;3382;51.576;8.076;2023-04-16T11:30:16;12.90;99.90
6690;DHT22;3382;51.576;8.076;2023-04-16T11:32:43;13.00;99.90
6690;DHT22;3382;51.576;8.076;2023-04-16T11:35:16;12.90;99.90
6690;DHT22;3382;51.576;8.076;2023-04-16T11:37:42;12.90;99.90
6690;DHT22;3382;51.576;8.076;2023-04-16T11:40:09;12.90;99.90
6690;DHT22;3382;51.576;8.076;2023-04-16T11:42:37;12.90;99.90
6690;DHT22;3382;51.576;8.076;2023-04-16T11:45:05;12.90;99.90
6690;DHT22;3382;51.576;8.076;2023-04-16T11:47:31;12.90;99.90
6690;DHT22;3382;51.576;8.076;2023-04-16T11:49:57;12.90;99.90
6690;DHT22;3382;51.576;8.076;2023-04-16T11:52:39;12.90;99.90
6690;DHT22;3382;51.576;8.076;2023-04-16T11:55:05;12.80;99.90
6690;DHT22;3382;51.576;8.076;2023-04-16T11:57:31;12.80;99.90
6690;DHT22;3382;51.576;8.076;2023-04-16T11:59:58;13.00;99.90
6690;DHT22;3382;51.576;8.076;2023-04-16T12:02:37;13.10;99.90
6690;DHT22;3382;51.576;8.076;2023-04-16T12:05:04;13.10;99.90
6690;DHT22;3382;51.576;8.076;2023-04-16T12:07:30;13.10;99.90
6690;DHT22;3382;51.576;8.076;2023-04-16T12:10:06;13.00;99.90
6690;DHT22;3382;51.576;8.076;2023-04-16T12:12:32;13.00;99.90
6690;DHT22;3382;51.576;8.076;2023-04-16T12:15:00;13.00;99.90
6690;DHT22;3382;51.576;8.076;2023-04-16T12:17:28;13.00;99.90
6690;DHT22;3382;51.576;8.076;2023-04-16T12:19:58;13.00;99.90
6690;DHT22;3382;51.576;8.076;2023-04-16T12:22:32;13.00;99.90
6690;DHT22;3382;51.576;8.076;2023-04-16T12:25:05;13.00;99.90
6690;DHT22;3382;51.576;8.076;2023-04-16T12:27:47;12.90;99.90
6690;DHT22;3382;51.576;8.076;2023-04-16T12:30:16;12.90;99.90
6690;DHT22;3382;51.576;8.076;2023-04-16T12:32:43;12.90;99.90
6690;DHT22;3382;51.576;8.076;2023-04-16T12:35:10;12.90;99.90
6690;DHT22;3382;51.576;8.076;2023-04-16T12:37:37;12.90;99.90
6690;DHT22;3382;51.576;8.076;2023-04-16T12:40:03;12.90;99.90
6690;DHT22;3382;51.576;8.076;2023-04-16T12:42:30;12.90;99.90
6690;DHT22;3382;51.576;8.076;2023-04-16T12:45:01;12.90;99.90
6690;DHT22;3382;51.576;8.076;2023-04-16T12:47:28;13.00;99.90
6690;DHT22;3382;51.576;8.076;2023-04-16T12:49:55;13.00;99.90
6690;DHT22;3382;51.576;8.076;2023-04-16T12:52:20;13.00;99.90
6690;DHT22;3382;51.576;8.076;2023-04-16T12:54:46;13.10;99.90
6690;DHT22;3382;51.576;8.076;2023-04-16T12:57:12;13.10;99.90
6690;DHT22;3382;51.576;8.076;2023-04-16T12:59:37;13.00;99.90
6690;DHT22;3382;51.576;8.076;2023-04-16T13:02:03;13.10;99.90
6690;DHT22;3382;51.576;8.076;2023-04-16T13:04:28;13.10;99.90
6690;DHT22;3382;51.576;8.076;2023-04-16T13:06:54;13.10;99.90
6690;DHT22;3382;51.576;8.076;2023-04-16T13:09:20;13.10;99.90
6690;DHT22;3382;51.576;8.076;2023-04-16T13:11:45;13.10;99.90
6690;DHT22;3382;51.576;8.076;2023-04-16T13:14:11;13.10;99.90
6690;DHT22;3382;51.576;8.076;2023-04-16T13:16:36;13.10;99.90
6690;DHT22;3382;51.576;8.076;2023-04-16T13:19:03;13.10;99.90
6690;DHT22;3382;51.576;8.076;2023-04-16T13:21:29;13.20;99.90
6690;DHT22;3382;51.576;8.076;2023-04-16T13:23:54;13.10;99.90
6690;DHT22;3382;51.576;8.076;2023-04-16T13:26:20;13.10;99.90
6690;DHT22;3382;51.576;8.076;2023-04-16T13:28:46;13.10;99.90
6690;DHT22;3382;51.576;8.076;2023-04-16T13:31:12;13.00;99.90
6690;DHT22;3382;51.576;8.076;2023-04-16T13:33:40;13.00;99.90
6690;DHT22;3382;51.576;8.076;2023-04-16T13:36:05;13.00;99.90
6690;DHT22;3382;51.576;8.076;2023-04-16T13:38:31;13.00;99.90
6690;DHT22;3382;51.576;8.076;2023-04-16T13:40:56;13.00;99.90
6690;DHT22;3382;51.576;8.076;2023-04-16T13:43:22;12.90;99.90
6690;DHT22;3382;51.576;8.076;2023-04-16T13:45:48;12.90;99.90
6690;DHT22;3382;51.576;8.076;2023-04-16T13:48:13;13.00;99.90
6690;DHT22;3382;51.576;8.076;2023-04-16T13:50:39;13.00;99.90
6690;DHT22;3382;51.576;8.076;2023-04-16T13:53:04;13.00;99.90
6690;DHT22;3382;51.576;8.076;2023-04-16T13:55:30;13.10;99.90
6690;DHT22;3382;51.576;8.076;2023-04-16T13:57:56;13.10;99.90
6690;DHT22;3382;51.576;8.076;2023-04-16T14:00:22;13.20;99.90
6690;DHT22;3382;51.576;8.076;2023-04-16T14:02:47;13.20;99.90
6690;DHT22;3382;51.576;8.076;2023-04-16T14:05:13;13.20;99.90
6690;DHT22;3382;51.576;8.076;2023-04-16T14:07:39;13.10;99.90
6690;DHT22;3382;51.576;8.076;2023-04-16T14:10:05;13.00;99.90
6690;DHT22;3382;51.576;8.076;2023-04-16T14:12:31;13.00;99.90
6690;DHT22;3382;51.576;8.076;2023-04-16T14:14:57;13.00;99.90
6690;DHT22;3382;51.576;8.076;2023-04-16T14:17:23;13.00;99.90
6690;DHT22;3382;51.576;8.076;2023-04-16T14:19:48;13.00;99.90
6690;DHT22;3382;51.576;8.076;2023-04-16T14:22:14;12.90;99.90
6690;DHT22;3382;51.576;8.076;2023-04-16T14:24:43;13.00;99.90
6690;DHT22;3382;51.576;8.076;2023-04-16T14:27:09;12.90;99.90
6690;DHT22;3382;51.576;8.076;2023-04-16T14:29:34;12.90;99.90
6690;DHT22;3382;51.576;8.076;2023-04-16T14:32:01;12.90;99.90
6690;DHT22;3382;51.576;8.076;2023-04-16T14:34:26;12.90;99.90
6690;DHT22;3382;51.576;8.076;2023-04-16T14:36:52;13.00;99.90
6690;DHT22;3382;51.576;8.076;2023-04-16T14:39:18;13.10;99.90
6690;DHT22;3382;51.576;8.076;2023-04-16T14:41:43;13.00;99.90
6690;DHT22;3382;51.576;8.076;2023-04-16T14:44:09;13.10;99.90
6690;DHT22;3382;51.576;8.076;2023-04-16T14:46:34;13.10;99.90
6690;DHT22;3382;51.576;8.076;2023-04-16T14:49:00;13.10;99.90
6690;DHT22;3382;51.576;8.076;2023-04-16T14:51:26;13.10;99.90
6690;DHT22;3382;51.576;8.076;2023-04-16T14:53:52;13.20;99.90
6690;DHT22;3382;51.576;8.076;2023-04-16T14:56:17;13.20;99.90
6690;DHT22;3382;51.576;8.076;2023-04-16T14:58:43;13.20;99.90
6690;DHT22;3382;51.576;8.076;2023-04-16T15:01:08;13.20;99.90
6690;DHT22;3382;51.576;8.076;2023-04-16T15:03:34;13.20;99.90
6690;DHT22;3382;51.576;8.076;2023-04-16T15:06:00;13.20;99.90
6690;DHT22;3382;51.576;8.076;2023-04-16T15:08:26;13.30;99.90
6690;DHT22;3382;51.576;8.076;2023-04-16T15:10:52;13.30;99.90
6690;DHT22;3382;51.576;8.076;2023-04-16T15:13:17;13.30;99.90
6690;DHT22;3382;51.576;8.076;2023-04-16T15:15:43;13.30;99.90
6690;DHT22;3382;51.576;8.076;2023-04-16T15:18:09;13.40;99.90
6690;DHT22;3382;51.576;8.076;2023-04-16T15:20:35;13.40;99.90
6690;DHT22;3382;51.576;8.076;2023-04-16T15:23:01;13.40;99.90
6690;DHT22;3382;51.576;8.076;2023-04-16T15:25:27;13.50;99.90
6690;DHT22;3382;51.576;8.076;2023-04-16T15:27:53;13.80;99.90
6690;DHT22;3382;51.576;8.076;2023-04-16T15:30:19;13.70;99.90
6690;DHT22;3382;51.576;8.076;2023-04-16T15:32:45;13.70;99.90
6690;DHT22;3382;51.576;8.076;2023-04-16T15:35:13;13.70;99.90
6690;DHT22;3382;51.576;8.076;2023-04-16T15:37:39;13.70;99.90
6690;DHT22;3382;51.576;8.076;2023-04-16T15:40:05;13.90;99.90
6690;DHT22;3382;51.576;8.076;2023-04-16T15:42:33;13.90;99.90
6690;DHT22;3382;51.576;8.076;2023-04-16T15:44:58;13.80;99.90
6690;DHT22;3382;51.576;8.076;2023-04-16T15:47:24;13.70;99.90
6690;DHT22;3382;51.576;8.076;2023-04-16T15:49:50;13.70;99.90
6690;DHT22;3382;51.576;8.076;2023-04-16T15:52:16;13.70;99.90
6690;DHT22;3382;51.576;8.076;2023-04-16T15:54:42;13.70;99.90
6690;DHT22;3382;51.576;8.076;2023-04-16T15:57:07;13.70;99.90
6690;DHT22;3382;51.576;8.076;2023-04-16T15:59:33;13.70;99.90
6690;DHT22;3382;51.576;8.076;2023-04-16T16:01:59;13.70;99.90
6690;DHT22;3382;51.576;8.076;2023-04-16T16:04:25;13.70;99.90
6690;DHT22;3382;51.576;8.076;2023-04-16T16:07:01;13.70;99.90
6690;DHT22;3382;51.576;8.076;2023-04-16T16:09:29;13.70;99.90
6690;DHT22;3382;51.576;8.076;2023-04-16T16:11:57;13.70;99.90
6690;DHT22;3382;51.576;8.076;2023-04-16T16:14:24;13.70;99.90
6690;DHT22;3382;51.576;8.076;2023-04-16T16:16:51;13.70;99.90